sensor_id;sensor_type;location;lat;lon;timestamp;P1;durP1;ratioP1;P2;durP2;ratioP2
31348;SDS011;17976;48.480;11.946;2023-02-26T10:36:24;1.55;;;1.45;;
31348;SDS011;17976;48.480;11.946;2023-02-26T10:38:51;1.90;;;1.48;;
31348;SDS011;17976;48.480;11.946;2023-02-26T10:41:19;1.77;;;1.25;;
31348;SDS011;17976;48.480;11.946;2023-02-26T10:43:47;3.53;;;1.77;;
31348;SDS011;17976;48.480;11.946;2023-02-26T10:51:25;1.42;;;1.25;;
31348;SDS011;17976;48.480;11.946;2023-02-26T10:53:57;4.07;;;1.23;;
31348;SDS011;17976;48.480;11.946;2023-02-26T10:56:25;2.60;;;1.38;;
31348;SDS011;17976;48.480;11.946;2023-02-26T10:58:52;1.55;;;1.13;;
31348;SDS011;17976;48.480;11.946;2023-02-26T11:01:19;1.45;;;1.30;;
31348;SDS011;17976;48.480;11.946;2023-02-26T11:03:46;1.55;;;1.30;;
31348;SDS011;17976;48.480;11.946;2023-02-26T11:06:23;2.05;;;1.50;;
31348;SDS011;17976;48.480;11.946;2023-02-26T11:08:51;1.35;;;1.20;;
31348;SDS011;17976;48.480;11.946;2023-02-26T11:11:38;3.20;;;1.23;;
31348;SDS011;17976;48.480;11.946;2023-02-26T11:14:04;2.40;;;1.30;;
31348;SDS011;17976;48.480;11.946;2023-02-26T11:16:30;1.60;;;1.00;;
31348;SDS011;17976;48.480;11.946;2023-02-26T11:18:57;1.25;;;1.00;;
31348;SDS011;17976;48.480;11.946;2023-02-26T11:21:25;1.30;;;0.88;;
31348;SDS011;17976;48.480;11.946;2023-02-26T11:23:55;0.90;;;0.75;;
31348;SDS011;17976;48.480;11.946;2023-02-26T11:26:25;1.42;;;0.80;;
31348;SDS011;17976;48.480;11.946;2023-02-26T11:28:53;1.98;;;0.90;;
31348;SDS011;17976;48.480;11.946;2023-02-26T11:31:20;2.33;;;0.70;;
31348;SDS011;17976;48.480;11.946;2023-02-26T11:33:50;0.90;;;0.60;;
31348;SDS011;17976;48.480;11.946;2023-02-26T11:36:20;0.85;;;0.60;;
31348;SDS011;17976;48.480;11.946;2023-02-26T11:38:51;0.80;;;0.80;;
31348;SDS011;17976;48.480;11.946;2023-02-26T11:41:18;1.88;;;0.90;;
31348;SDS011;17976;48.480;11.946;2023-02-26T11:43:46;0.95;;;0.90;;
31348;SDS011;17976;48.480;11.946;2023-02-26T11:46:12;1.02;;;0.82;;
31348;SDS011;17976;48.480;11.946;2023-02-26T11:48:44;1.23;;;1.13;;
31348;SDS011;17976;48.480;11.946;2023-02-26T11:51:12;2.70;;;1.10;;
31348;SDS011;17976;48.480;11.946;2023-02-26T11:53:42;1.00;;;0.90;;
31348;SDS011;17976;48.480;11.946;2023-02-26T11:56:12;1.13;;;0.90;;
31348;SDS011;17976;48.480;11.946;2023-02-26T11:58:39;3.30;;;1.95;;
31348;SDS011;17976;48.480;11.946;2023-02-26T12:01:06;0.90;;;0.90;;
31348;SDS011;17976;48.480;11.946;2023-02-26T12:03:35;1.42;;;1.00;;
31348;SDS011;17976;48.480;11.946;2023-02-26T12:06:04;2.70;;;0.90;;
31348;SDS011;17976;48.480;11.946;2023-02-26T12:08:31;1.30;;;0.95;;
31348;SDS011;17976;48.480;11.946;2023-02-26T12:13:42;2.60;;;1.30;;
31348;SDS011;17976;48.480;11.946;2023-02-26T12:18:58;2.28;;;1.60;;
31348;SDS011;17976;48.480;11.946;2023-02-26T12:24:09;1.80;;;1.38;;
31348;SDS011;17976;48.480;11.946;2023-02-26T12:29:06;3.55;;;1.50;;
31348;SDS011;17976;48.480;11.946;2023-02-26T12:31:52;1.75;;;1.60;;
31348;SDS011;17976;48.480;11.946;2023-02-26T12:45:19;1.92;;;1.50;;
31348;SDS011;17976;48.480;11.946;2023-02-26T12:50:37;1.70;;;1.50;;
31348;SDS011;17976;48.480;11.946;2023-02-26T12:56:18;2.97;;;1.45;;
31348;SDS011;17976;48.480;11.946;2023-02-26T12:58:39;3.75;;;1.95;;
31348;SDS011;17976;48.480;11.946;2023-02-26T13:01:19;1.48;;;1.17;;
31348;SDS011;17976;48.480;11.946;2023-02-26T13:03:52;1.95;;;1.20;;
31348;SDS011;17976;48.480;11.946;2023-02-26T13:09:12;1.23;;;0.95;;
31348;SDS011;17976;48.480;11.946;2023-02-26T13:16:41;1.55;;;1.10;;
31348;SDS011;17976;48.480;11.946;2023-02-26T13:19:16;0.90;;;0.80;;
31348;SDS011;17976;48.480;11.946;2023-02-26T13:22:04;1.50;;;1.10;;
31348;SDS011;17976;48.480;11.946;2023-02-26T13:24:33;1.23;;;1.13;;
31348;SDS011;17976;48.480;11.946;2023-02-26T13:27:00;1.95;;;1.00;;
31348;SDS011;17976;48.480;11.946;2023-02-26T13:29:29;1.52;;;1.00;;
31348;SDS011;17976;48.480;11.946;2023-02-26T13:32:01;1.75;;;1.17;;
31348;SDS011;17976;48.480;11.946;2023-02-26T13:34:40;1.50;;;1.13;;
31348;SDS011;17976;48.480;11.946;2023-02-26T13:37:12;1.67;;;1.15;;
31348;SDS011;17976;48.480;11.946;2023-02-26T13:47:35;1.45;;;1.20;;
31348;SDS011;17976;48.480;11.946;2023-02-26T13:52:55;1.15;;;0.82;;
31348;SDS011;17976;48.480;11.946;2023-02-26T13:56:04;1.52;;;1.13;;
31348;SDS011;17976;48.480;11.946;2023-02-26T14:00:46;3.17;;;1.20;;
31348;SDS011;17976;48.480;11.946;2023-02-26T14:05:51;8.27;;;4.38;;
31348;SDS011;17976;48.480;11.946;2023-02-26T14:10:57;1.38;;;1.20;;
31348;SDS011;17976;48.480;11.946;2023-02-26T14:16:12;2.08;;;1.20;;
31348;SDS011;17976;48.480;11.946;2023-02-26T14:23:56;2.08;;;1.17;;
31348;SDS011;17976;48.480;11.946;2023-02-26T14:26:23;0.90;;;0.90;;
31348;SDS011;17976;48.480;11.946;2023-02-26T14:37:11;1.20;;;1.08;;
31348;SDS011;17976;48.480;11.946;2023-02-26T14:39:40;2.70;;;1.38;;
31348;SDS011;17976;48.480;11.946;2023-02-26T14:42:11;1.30;;;0.98;;
31348;SDS011;17976;48.480;11.946;2023-02-26T14:44:40;2.05;;;0.90;;
31348;SDS011;17976;48.480;11.946;2023-02-26T14:47:08;1.05;;;0.90;;
31348;SDS011;17976;48.480;11.946;2023-02-26T14:49:35;3.03;;;1.13;;
31348;SDS011;17976;48.480;11.946;2023-02-26T14:57:21;1.73;;;1.23;;
31348;SDS011;17976;48.480;11.946;2023-02-26T15:05:00;1.92;;;1.00;;
31348;SDS011;17976;48.480;11.946;2023-02-26T15:07:39;1.85;;;1.20;;
31348;SDS011;17976;48.480;11.946;2023-02-26T15:22:56;1.98;;;1.08;;
31348;SDS011;17976;48.480;11.946;2023-02-26T15:27:51;2.00;;;1.10;;
31348;SDS011;17976;48.480;11.946;2023-02-26T15:30:17;1.95;;;1.00;;
31348;SDS011;17976;48.480;11.946;2023-02-26T15:32:44;1.67;;;0.98;;
31348;SDS011;17976;48.480;11.946;2023-02-26T15:35:20;1.83;;;0.90;;
31348;SDS011;17976;48.480;11.946;2023-02-26T15:37:51;2.35;;;1.30;;
31348;SDS011;17976;48.480;11.946;2023-02-26T15:40:18;1.75;;;1.25;;
31348;SDS011;17976;48.480;11.946;2023-02-26T15:42:44;1.67;;;0.85;;
31348;SDS011;17976;48.480;11.946;2023-02-26T15:45:25;1.77;;;1.02;;
31348;SDS011;17976;48.480;11.946;2023-02-26T15:47:55;1.60;;;1.00;;
31348;SDS011;17976;48.480;11.946;2023-02-26T15:50:24;1.08;;;0.90;;
31348;SDS011;17976;48.480;11.946;2023-02-26T15:52:52;1.10;;;1.00;;
31348;SDS011;17976;48.480;11.946;2023-02-26T15:55:20;2.55;;;0.93;;
31348;SDS011;17976;48.480;11.946;2023-02-26T15:57:46;2.53;;;1.20;;
31348;SDS011;17976;48.480;11.946;2023-02-26T16:00:14;1.13;;;1.00;;
31348;SDS011;17976;48.480;11.946;2023-02-26T16:02:41;2.40;;;1.17;;
31348;SDS011;17976;48.480;11.946;2023-02-26T16:05:07;3.28;;;1.50;;
31348;SDS011;17976;48.480;11.946;2023-02-26T16:07:33;1.65;;;1.38;;
31348;SDS011;17976;48.480;11.946;2023-02-26T16:10:03;5.32;;;0.98;;
31348;SDS011;17976;48.480;11.946;2023-02-26T16:12:33;2.72;;;1.10;;
31348;SDS011;17976;48.480;11.946;2023-02-26T16:15:02;1.90;;;1.30;;
31348;SDS011;17976;48.480;11.946;2023-02-26T16:17:29;1.80;;;1.20;;
31348;SDS011;17976;48.480;11.946;2023-02-26T16:19:57;2.17;;;1.10;;
31348;SDS011;17976;48.480;11.946;2023-02-26T16:22:25;1.95;;;1.02;;
31348;SDS011;17976;48.480;11.946;2023-02-26T16:25:05;1.35;;;1.05;;
31348;SDS011;17976;48.480;11.946;2023-02-26T16:27:31;1.80;;;1.20;;
31348;SDS011;17976;48.480;11.946;2023-02-26T16:29:58;1.25;;;1.10;;
31348;SDS011;17976;48.480;11.946;2023-02-26T16:32:25;1.88;;;1.40;;
31348;SDS011;17976;48.480;11.946;2023-02-26T16:34:57;1.90;;;1.30;;
31348;SDS011;17976;48.480;11.946;2023-02-26T16:37:25;1.55;;;1.10;;
31348;SDS011;17976;48.480;11.946;2023-02-26T16:39:56;1.33;;;1.10;;
31348;SDS011;17976;48.480;11.946;2023-02-26T16:42:35;2.30;;;1.23;;
31348;SDS011;17976;48.480;11.946;2023-02-26T16:47:30;1.90;;;1.00;;
31348;SDS011;17976;48.480;11.946;2023-02-26T16:49:56;3.25;;;1.30;;
31348;SDS011;17976;48.480;11.946;2023-02-26T16:52:23;1.50;;;1.40;;
31348;SDS011;17976;48.480;11.946;2023-02-26T16:54:55;3.45;;;1.50;;
31348;SDS011;17976;48.480;11.946;2023-02-26T16:57:24;1.83;;;1.40;;
31348;SDS011;17976;48.480;11.946;2023-02-26T16:59:55;2.00;;;1.50;;
31348;SDS011;17976;48.480;11.946;2023-02-26T17:02:27;2.28;;;1.42;;
31348;SDS011;17976;48.480;11.946;2023-02-26T17:04:56;2.40;;;1.50;;
31348;SDS011;17976;48.480;11.946;2023-02-26T17:07:25;2.65;;;1.70;;
31348;SDS011;17976;48.480;11.946;2023-02-26T17:09:54;1.85;;;1.45;;
31348;SDS011;17976;48.480;11.946;2023-02-26T17:12:21;1.90;;;1.70;;
31348;SDS011;17976;48.480;11.946;2023-02-26T17:14:52;2.85;;;1.90;;
31348;SDS011;17976;48.480;11.946;2023-02-26T17:17:20;7.50;;;4.72;;
31348;SDS011;17976;48.480;11.946;2023-02-26T17:19:46;3.13;;;1.77;;
31348;SDS011;17976;48.480;11.946;2023-02-26T17:22:12;3.55;;;1.80;;
31348;SDS011;17976;48.480;11.946;2023-02-26T17:24:40;3.67;;;1.52;;
31348;SDS011;17976;48.480;11.946;2023-02-26T17:27:16;2.75;;;1.88;;
31348;SDS011;17976;48.480;11.946;2023-02-26T17:29:45;2.70;;;2.20;;
31348;SDS011;17976;48.480;11.946;2023-02-26T17:32:21;3.45;;;1.95;;
31348;SDS011;17976;48.480;11.946;2023-02-26T17:34:48;2.38;;;1.70;;
31348;SDS011;17976;48.480;11.946;2023-02-26T17:37:14;1.80;;;1.70;;
31348;SDS011;17976;48.480;11.946;2023-02-26T17:39:41;4.03;;;1.95;;
31348;SDS011;17976;48.480;11.946;2023-02-26T17:42:11;4.07;;;2.88;;
31348;SDS011;17976;48.480;11.946;2023-02-26T17:44:37;2.88;;;2.15;;
31348;SDS011;17976;48.480;11.946;2023-02-26T17:47:03;4.13;;;2.22;;
31348;SDS011;17976;48.480;11.946;2023-02-26T17:49:29;3.70;;;2.33;;
31348;SDS011;17976;48.480;11.946;2023-02-26T17:51:55;4.93;;;2.40;;
31348;SDS011;17976;48.480;11.946;2023-02-26T17:54:21;3.28;;;2.25;;
31348;SDS011;17976;48.480;11.946;2023-02-26T17:56:47;2.55;;;2.30;;
31348;SDS011;17976;48.480;11.946;2023-02-26T17:59:13;2.65;;;2.20;;
31348;SDS011;17976;48.480;11.946;2023-02-26T18:01:39;3.20;;;2.33;;
31348;SDS011;17976;48.480;11.946;2023-02-26T18:04:05;4.43;;;2.72;;
31348;SDS011;17976;48.480;11.946;2023-02-26T18:06:33;3.08;;;2.30;;
31348;SDS011;17976;48.480;11.946;2023-02-26T18:09:00;3.25;;;2.42;;
31348;SDS011;17976;48.480;11.946;2023-02-26T18:11:28;6.50;;;2.47;;
31348;SDS011;17976;48.480;11.946;2023-02-26T18:13:54;4.75;;;2.10;;
31348;SDS011;17976;48.480;11.946;2023-02-26T18:16:22;4.32;;;3.13;;
31348;SDS011;17976;48.480;11.946;2023-02-26T18:18:48;3.38;;;2.65;;
31348;SDS011;17976;48.480;11.946;2023-02-26T18:21:15;4.82;;;2.90;;
31348;SDS011;17976;48.480;11.946;2023-02-26T18:23:40;3.67;;;2.38;;
31348;SDS011;17976;48.480;11.946;2023-02-26T18:26:06;4.53;;;2.75;;
31348;SDS011;17976;48.480;11.946;2023-02-26T18:28:34;3.83;;;2.45;;
31348;SDS011;17976;48.480;11.946;2023-02-26T18:31:00;4.82;;;2.88;;
31348;SDS011;17976;48.480;11.946;2023-02-26T18:33:32;5.38;;;2.50;;
31348;SDS011;17976;48.480;11.946;2023-02-26T18:35:58;3.70;;;2.85;;
31348;SDS011;17976;48.480;11.946;2023-02-26T18:38:25;6.03;;;2.95;;
31348;SDS011;17976;48.480;11.946;2023-02-26T18:40:52;3.50;;;2.50;;
31348;SDS011;17976;48.480;11.946;2023-02-26T18:43:18;4.28;;;2.72;;
31348;SDS011;17976;48.480;11.946;2023-02-26T18:45:45;3.78;;;2.90;;
31348;SDS011;17976;48.480;11.946;2023-02-26T18:48:12;6.25;;;2.97;;
31348;SDS011;17976;48.480;11.946;2023-02-26T18:50:40;4.57;;;2.90;;
31348;SDS011;17976;48.480;11.946;2023-02-26T18:53:06;4.18;;;2.45;;
31348;SDS011;17976;48.480;11.946;2023-02-26T18:55:32;3.13;;;2.45;;
31348;SDS011;17976;48.480;11.946;2023-02-26T18:57:58;3.53;;;2.63;;
31348;SDS011;17976;48.480;11.946;2023-02-26T19:00:24;6.25;;;3.28;;
31348;SDS011;17976;48.480;11.946;2023-02-26T19:02:52;6.22;;;3.03;;
31348;SDS011;17976;48.480;11.946;2023-02-26T19:05:18;4.35;;;2.70;;
31348;SDS011;17976;48.480;11.946;2023-02-26T19:07:47;4.90;;;3.28;;
31348;SDS011;17976;48.480;11.946;2023-02-26T19:10:13;4.97;;;2.80;;
31348;SDS011;17976;48.480;11.946;2023-02-26T19:12:40;4.00;;;2.80;;
31348;SDS011;17976;48.480;11.946;2023-02-26T19:15:06;4.75;;;2.67;;
31348;SDS011;17976;48.480;11.946;2023-02-26T19:17:32;8.48;;;3.00;;
31348;SDS011;17976;48.480;11.946;2023-02-26T19:19:58;4.47;;;2.55;;
31348;SDS011;17976;48.480;11.946;2023-02-26T19:22:24;4.00;;;3.03;;
31348;SDS011;17976;48.480;11.946;2023-02-26T19:24:50;7.53;;;3.30;;
31348;SDS011;17976;48.480;11.946;2023-02-26T19:27:17;3.28;;;2.38;;
31348;SDS011;17976;48.480;11.946;2023-02-26T19:29:43;4.35;;;2.25;;
31348;SDS011;17976;48.480;11.946;2023-02-26T19:32:09;4.90;;;2.53;;
31348;SDS011;17976;48.480;11.946;2023-02-26T19:34:35;4.07;;;2.55;;
31348;SDS011;17976;48.480;11.946;2023-02-26T19:37:01;3.47;;;2.50;;
31348;SDS011;17976;48.480;11.946;2023-02-26T19:39:27;2.92;;;2.45;;
31348;SDS011;17976;48.480;11.946;2023-02-26T19:41:53;4.05;;;2.10;;
31348;SDS011;17976;48.480;11.946;2023-02-26T19:44:20;4.07;;;2.42;;
31348;SDS011;17976;48.480;11.946;2023-02-26T19:46:46;6.78;;;2.47;;
31348;SDS011;17976;48.480;11.946;2023-02-26T19:49:12;5.47;;;2.35;;
31348;SDS011;17976;48.480;11.946;2023-02-26T19:51:39;3.83;;;2.10;;
31348;SDS011;17976;48.480;11.946;2023-02-26T19:54:05;3.67;;;2.40;;
31348;SDS011;17976;48.480;11.946;2023-02-26T19:56:31;4.07;;;2.70;;
31348;SDS011;17976;48.480;11.946;2023-02-26T19:58:57;6.72;;;2.53;;
31348;SDS011;17976;48.480;11.946;2023-02-26T20:01:23;3.63;;;2.13;;
31348;SDS011;17976;48.480;11.946;2023-02-26T20:03:49;3.58;;;2.17;;
31348;SDS011;17976;48.480;11.946;2023-02-26T20:06:15;3.10;;;1.98;;
31348;SDS011;17976;48.480;11.946;2023-02-26T20:08:41;3.42;;;2.25;;
31348;SDS011;17976;48.480;11.946;2023-02-26T20:11:07;3.90;;;2.50;;
31348;SDS011;17976;48.480;11.946;2023-02-26T20:13:33;6.38;;;2.67;;
31348;SDS011;17976;48.480;11.946;2023-02-26T20:16:04;2.20;;;1.80;;
31348;SDS011;17976;48.480;11.946;2023-02-26T20:18:30;3.33;;;2.42;;
31348;SDS011;17976;48.480;11.946;2023-02-26T20:20:57;4.18;;;2.75;;
31348;SDS011;17976;48.480;11.946;2023-02-26T20:23:23;5.97;;;2.22;;
31348;SDS011;17976;48.480;11.946;2023-02-26T20:25:49;10.75;;;4.93;;
31348;SDS011;17976;48.480;11.946;2023-02-26T20:28:16;9.75;;;3.17;;
31348;SDS011;17976;48.480;11.946;2023-02-26T20:30:42;4.35;;;2.10;;
31348;SDS011;17976;48.480;11.946;2023-02-26T20:33:08;6.22;;;2.10;;
31348;SDS011;17976;48.480;11.946;2023-02-26T20:35:34;3.65;;;2.08;;
31348;SDS011;17976;48.480;11.946;2023-02-26T20:38:01;5.95;;;2.30;;
31348;SDS011;17976;48.480;11.946;2023-02-26T20:40:27;4.50;;;2.03;;
31348;SDS011;17976;48.480;11.946;2023-02-26T20:42:53;6.07;;;2.58;;
31348;SDS011;17976;48.480;11.946;2023-02-26T20:45:18;4.32;;;2.35;;
31348;SDS011;17976;48.480;11.946;2023-02-26T20:47:44;8.32;;;2.45;;
31348;SDS011;17976;48.480;11.946;2023-02-26T20:50:10;4.47;;;2.05;;
31348;SDS011;17976;48.480;11.946;2023-02-26T20:52:36;6.30;;;2.50;;
31348;SDS011;17976;48.480;11.946;2023-02-26T20:55:03;2.13;;;1.92;;
31348;SDS011;17976;48.480;11.946;2023-02-26T20:57:29;4.82;;;2.60;;
31348;SDS011;17976;48.480;11.946;2023-02-26T20:59:56;3.17;;;2.17;;
